Time;durP1;ratioP1;P1;durP2;ratioP2;P2;SDS_P1;SDS_P2;PMS_P1;PMS_P2;Temp;Humidity;BMP_temperature;BMP_pressure;BME280_temperature;BME280_humidity;BME280_pressure;Samples;Min_cycle;Max_cycle;Signal;HPM_P1;HPM_P2
2022/07/31 00:01:14;;;;;;;;;0.00;0.00;;;;;25.45;45.97;101698.34;4963584;28;45399;-60
2022/07/31 00:03:40;;;;;;;;;1.00;1.00;;;;;25.42;46.03;101697.81;4963371;28;45238;-60
2022/07/31 00:06:06;;;;;;;;;0.00;0.00;;;;;25.37;46.39;101703.72;4963624;28;45488;-60
2022/07/31 00:08:32;;;;;;;;;1.00;0.00;;;;;25.31;46.10;101699.81;4963483;28;45514;-60
2022/07/31 00:10:58;;;;;;;;;0.00;0.00;;;;;25.30;46.69;101697.28;4963477;28;45253;-60
2022/07/31 00:13:23;;;;;;;;;1.00;0.25;;;;;25.28;46.52;101699.31;4963495;28;45350;-60
2022/07/31 00:15:48;;;;;;;;;0.00;0.00;;;;;25.26;46.14;101690.50;4963379;28;45627;-60
2022/07/31 00:18:14;;;;;;;;;4.00;1.00;;;;;25.22;46.66;101687.31;4962942;28;46097;-60
2022/07/31 00:20:39;;;;;;;;;1.50;0.00;;;;;25.20;46.51;101686.63;4963325;28;45298;-60
2022/07/31 00:23:05;;;;;;;;;2.50;0.25;;;;;25.18;46.58;101691.31;4963383;28;45301;-60
2022/07/31 00:25:31;;;;;;;;;0.25;0.25;;;;;25.17;46.27;101691.50;4963343;28;45564;-60
2022/07/31 00:27:57;;;;;;;;;0.25;0.25;;;;;25.15;46.60;101691.66;4962075;28;46053;-60
2022/07/31 00:30:22;;;;;;;;;0.50;0.50;;;;;25.15;46.84;101683.56;4961696;28;45208;-60
2022/07/31 00:32:48;;;;;;;;;1.00;1.00;;;;;25.14;46.81;101689.13;4962858;28;45227;-60
2022/07/31 00:35:14;;;;;;;;;1.00;1.00;;;;;25.13;47.08;101691.00;4963218;28;45331;-60
2022/07/31 00:37:40;;;;;;;;;0.75;0.75;;;;;25.11;46.82;101686.75;4954985;28;45359;-60
2022/07/31 00:40:07;;;;;;;;;0.50;0.50;;;;;25.07;46.81;101688.94;4953499;28;45260;-60
2022/07/31 00:42:33;;;;;;;;;0.00;0.00;;;;;25.05;46.82;101696.34;4963039;28;45363;-60
2022/07/31 00:44:58;;;;;;;;;0.25;0.25;;;;;25.00;47.01;101698.66;4963059;28;45492;-60
2022/07/31 00:47:24;;;;;;;;;2.50;0.00;;;;;24.96;46.88;101699.97;4962717;28;45406;-60
2022/07/31 00:49:49;;;;;;;;;0.00;0.00;;;;;24.94;47.06;101700.13;4962703;28;45325;-60
2022/07/31 00:52:15;;;;;;;;;0.00;0.00;;;;;24.91;47.29;101694.22;4962993;28;45318;-60
2022/07/31 00:54:40;;;;;;;;;1.00;0.50;;;;;24.88;47.73;101692.69;4962976;28;45302;-60
2022/07/31 00:57:06;;;;;;;;;0.25;0.25;;;;;24.87;47.78;101699.06;4962694;28;45345;-60
2022/07/31 00:59:32;;;;;;;;;0.00;0.00;;;;;24.83;47.89;101697.72;4962658;28;45266;-60
2022/07/31 01:01:58;;;;;;;;;0.00;0.00;;;;;24.80;47.42;101692.63;4962677;28;45294;-60
2022/07/31 01:04:25;;;;;;;;;1.00;0.00;;;;;24.78;47.34;101700.03;4962610;28;45472;-60
2022/07/31 01:06:54;;;;;;;;;1.00;1.00;;;;;24.74;47.52;101694.16;4961233;28;45373;-60
2022/07/31 01:09:21;;;;;;;;;0.75;0.75;;;;;24.71;48.23;101697.13;4962551;28;45411;-60
2022/07/31 01:12:13;;;;;;;;;2.00;0.00;;;;;24.67;48.26;101708.41;4962571;28;45522;-60
2022/07/31 01:14:44;;;;;;;;;0.00;0.00;;;;;24.59;48.41;101705.66;4962528;28;45388;-60
2022/07/31 01:17:11;;;;;;;;;0.00;0.00;;;;;24.56;48.38;101711.34;4962288;28;45398;-60
2022/07/31 01:19:43;;;;;;;;;0.00;0.00;;;;;24.53;48.20;101712.53;4962121;28;45473;-60
2022/07/31 01:22:33;;;;;;;;;0.00;0.00;;;;;24.54;48.58;101705.28;4962512;28;45259;-60
2022/07/31 01:25:35;;;;;;;;;1.25;1.00;;;;;24.53;48.71;101714.38;4962408;28;45325;-60
2022/07/31 01:28:12;;;;;;;;;1.00;1.00;;;;;24.49;48.76;101703.94;4962012;28;46307;-60
2022/07/31 01:31:08;;;;;;;;;0.00;0.00;;;;;24.47;48.31;101702.38;4962361;28;45436;-60
2022/07/31 01:33:43;;;;;;;;;0.00;0.00;;;;;24.45;48.37;101702.53;4962157;28;45289;-60
2022/07/31 01:36:16;;;;;;;;;1.75;1.75;;;;;24.43;48.48;101701.88;4962147;28;45321;-60
2022/07/31 01:38:46;;;;;;;;;1.75;1.00;;;;;24.41;48.99;101703.00;4945587;28;46407;-60
2022/07/31 01:41:16;;;;;;;;;1.00;1.00;;;;;24.39;49.17;101711.25;4961195;28;45346;-61
2022/07/31 01:43:46;;;;;;;;;1.00;1.00;;;;;24.37;49.17;101707.88;4962393;28;45417;-61
2022/07/31 01:46:15;;;;;;;;;1.75;1.00;;;;;24.37;48.91;101707.03;4962065;28;45191;-58
2022/07/31 01:48:42;;;;;;;;;2.00;0.00;;;;;24.32;48.85;101707.50;4961603;28;46100;-58
2022/07/31 01:51:10;;;;;;;;;0.50;0.00;;;;;24.28;48.86;101706.09;4962136;28;45393;-58
2022/07/31 01:53:37;;;;;;;;;1.00;1.00;;;;;24.30;49.34;101705.94;4961965;28;45298;-58
2022/07/31 01:56:05;;;;;;;;;2.00;1.00;;;;;24.26;49.59;101708.09;4961986;28;45289;-58
2022/07/31 01:58:38;;;;;;;;;0.00;0.00;;;;;24.23;49.26;101705.72;4961686;28;45218;-58
2022/07/31 02:01:07;;;;;;;;;0.00;0.00;;;;;24.22;49.27;101704.03;4961751;28;45227;-58
2022/07/31 02:03:35;;;;;;;;;0.00;0.00;;;;;24.23;49.87;101700.31;4961615;28;45432;-61
2022/07/31 02:06:02;;;;;;;;;2.00;0.00;;;;;24.22;49.40;101701.34;4961869;28;45270;-58
2022/07/31 02:08:29;;;;;;;;;0.00;0.00;;;;;24.20;50.07;101706.88;4961487;28;46116;-58
2022/07/31 02:10:56;;;;;;;;;2.00;1.00;;;;;24.16;49.51;101713.56;4961764;28;45257;-60
2022/07/31 02:13:25;;;;;;;;;2.00;1.00;;;;;24.13;50.14;101718.44;4961815;28;45164;-58
2022/07/31 02:15:52;;;;;;;;;0.50;0.00;;;;;24.07;49.77;101710.97;4961694;28;45544;-58
2022/07/31 02:18:20;;;;;;;;;0.00;0.00;;;;;24.04;49.86;101716.66;4961105;28;45239;-58
2022/07/31 02:20:49;;;;;;;;;2.25;0.00;;;;;24.02;50.32;101711.44;4961724;28;45377;-58
2022/07/31 02:23:14;;;;;;;;;0.00;0.00;;;;;24.00;50.26;101705.34;4961663;28;45335;-58
2022/07/31 02:25:40;;;;;;;;;1.25;0.75;;;;;23.97;50.88;101702.97;4961640;28;45319;-58
2022/07/31 02:28:12;;;;;;;;;1.00;1.00;;;;;23.97;50.64;101708.38;4961429;28;45373;-58
2022/07/31 02:30:41;;;;;;;;;1.00;1.00;;;;;23.96;50.50;101714.75;4961572;28;45378;-58
2022/07/31 02:33:19;;;;;;;;;1.00;1.00;;;;;23.92;50.36;101718.72;4961361;28;45282;-58
2022/07/31 02:35:48;;;;;;;;;0.00;0.00;;;;;23.90;50.54;101709.97;4961495;28;45493;-58
2022/07/31 02:38:15;;;;;;;;;1.00;1.00;;;;;23.88;50.42;101710.13;4950235;28;45329;-60
2022/07/31 02:40:41;;;;;;;;;0.50;0.50;;;;;23.84;51.10;101705.19;4956534;28;46515;-58
2022/07/31 02:43:10;;;;;;;;;0.75;0.75;;;;;23.82;50.93;101691.91;4961747;28;45306;-58
2022/07/31 02:45:36;;;;;;;;;0.00;0.00;;;;;23.77;50.72;101688.81;4961482;28;45603;-58
2022/07/31 02:48:03;;;;;;;;;2.50;0.00;;;;;23.75;51.30;101693.53;4960971;28;46605;-59
2022/07/31 02:50:29;;;;;;;;;0.00;0.00;;;;;23.72;50.77;101693.00;4961448;28;45313;-59
2022/07/31 02:52:55;;;;;;;;;2.00;1.00;;;;;23.67;50.81;101688.06;4964905;28;45426;-59
2022/07/31 02:55:21;;;;;;;;;1.00;0.25;;;;;23.63;51.03;101694.75;4964672;28;45400;-59
2022/07/31 02:57:47;;;;;;;;;1.50;1.00;;;;;23.57;51.62;101693.47;4964575;28;45334;-59
2022/07/31 03:00:25;;;;;;;;;1.75;1.00;;;;;23.52;51.69;101698.47;4964312;28;45248;-59
2022/07/31 03:02:52;;;;;;;;;2.75;1.00;;;;;23.49;51.50;101695.25;4964338;28;45223;-59
2022/07/31 03:05:19;;;;;;;;;0.00;0.00;;;;;23.46;51.46;101692.84;4964620;28;45321;-59
2022/07/31 03:07:44;;;;;;;;;1.00;1.00;;;;;23.42;51.73;101691.47;4964333;28;45513;-59
2022/07/31 03:10:11;;;;;;;;;0.50;0.25;;;;;23.39;51.69;101695.31;4964310;28;45377;-59
2022/07/31 03:12:42;;;;;;;;;5.00;2.00;;;;;23.36;52.37;101692.91;4964682;28;45469;-59
2022/07/31 03:15:12;;;;;;;;;3.50;2.00;;;;;23.35;52.29;101686.69;4964332;28;45394;-59
2022/07/31 03:17:39;;;;;;;;;2.50;1.50;;;;;23.34;52.29;101681.47;4963856;28;45453;-59
2022/07/31 03:20:07;;;;;;;;;3.00;3.00;;;;;23.35;52.75;101688.53;4964072;28;45247;-59
2022/07/31 03:22:32;;;;;;;;;3.00;2.00;;;;;23.37;52.58;101682.00;4964284;28;45467;-59
2022/07/31 03:24:59;;;;;;;;;2.75;2.50;;;;;23.38;52.21;101678.34;4964038;28;45315;-59
2022/07/31 03:27:26;;;;;;;;;2.75;2.75;;;;;23.36;52.36;101677.63;4962857;28;45474;-59
2022/07/31 03:29:53;;;;;;;;;9.75;5.00;;;;;23.35;52.49;101680.47;4964012;28;45330;-59
2022/07/31 03:32:19;;;;;;;;;7.75;6.50;;;;;23.33;52.96;101677.09;4963959;28;45250;-59
2022/07/31 03:34:45;;;;;;;;;6.25;6.25;;;;;23.33;52.99;101675.25;4963728;28;45528;-59
2022/07/31 03:37:10;;;;;;;;;9.50;8.00;;;;;23.35;52.99;101672.41;4958641;28;45352;-60
2022/07/31 03:39:36;;;;;;;;;10.50;10.00;;;;;23.35;52.66;101669.72;4950124;28;45235;-59
2022/07/31 03:42:02;;;;;;;;;12.75;11.25;;;;;23.33;53.00;101663.66;4964086;28;45492;-59
2022/07/31 03:44:30;;;;;;;;;9.50;9.50;;;;;23.33;53.27;101663.66;4963784;28;45484;-59
2022/07/31 03:46:55;;;;;;;;;11.00;11.00;;;;;23.33;53.26;101669.03;4963835;28;45438;-59
2022/07/31 03:49:22;;;;;;;;;10.25;10.25;;;;;23.29;53.50;101671.16;4950443;28;45476;-59
2022/07/31 03:51:48;;;;;;;;;9.50;9.50;;;;;23.27;53.36;101666.94;4964041;28;45205;-59
2022/07/31 03:54:13;;;;;;;;;10.75;9.25;;;;;23.25;53.67;101664.41;4963757;28;45701;-59
2022/07/31 03:56:41;;;;;;;;;9.50;8.50;;;;;23.20;53.51;101669.38;4963776;28;45209;-60
2022/07/31 03:59:07;;;;;;;;;10.75;10.00;;;;;23.19;53.29;101661.47;4963687;28;45294;-59
2022/07/31 04:01:33;;;;;;;;;9.50;9.50;;;;;23.22;53.58;101655.78;4963631;28;45369;-59
2022/07/31 04:03:59;;;;;;;;;10.50;10.00;;;;;23.23;53.33;101655.66;4963579;28;45568;-59
2022/07/31 04:06:24;;;;;;;;;11.25;9.00;;;;;23.22;53.14;101655.78;4963551;28;46080;-59
2022/07/31 04:08:50;;;;;;;;;8.25;8.25;;;;;23.23;53.50;101657.50;4963584;28;45258;-59
2022/07/31 04:11:15;;;;;;;;;12.25;10.50;;;;;23.25;53.71;101658.19;4963777;28;45315;-59
2022/07/31 04:13:41;;;;;;;;;12.00;10.25;;;;;23.26;53.87;101657.19;4963583;28;45294;-59
2022/07/31 04:16:06;;;;;;;;;10.25;9.00;;;;;23.25;53.83;101659.03;4963234;28;46210;-59
2022/07/31 04:18:33;;;;;;;;;10.50;9.75;;;;;23.25;53.66;101660.88;4963088;28;45321;-59
2022/07/31 04:20:58;;;;;;;;;10.25;9.25;;;;;23.21;53.43;101657.63;4963372;28;45232;-59
2022/07/31 04:23:24;;;;;;;;;10.50;10.00;;;;;23.21;53.47;101656.78;4963436;28;45219;-59
2022/07/31 04:25:49;;;;;;;;;10.00;10.00;;;;;23.21;53.49;101654.09;4963027;28;45280;-59
2022/07/31 04:28:15;;;;;;;;;13.75;11.75;;;;;23.22;54.15;101661.16;4963146;28;45175;-59
2022/07/31 04:30:40;;;;;;;;;7.75;7.25;;;;;23.20;53.62;101664.00;4963395;28;45302;-59
2022/07/31 04:33:06;;;;;;;;;8.50;7.75;;;;;23.20;53.82;101668.53;4963210;28;45400;-59
2022/07/31 04:35:31;;;;;;;;;7.75;7.50;;;;;23.15;53.98;101666.31;4962992;28;45266;-59
2022/07/31 04:37:56;;;;;;;;;7.00;7.00;;;;;23.14;53.76;101672.66;4952819;28;45251;-59
2022/07/31 04:40:25;;;;;;;;;8.00;8.00;;;;;23.19;54.00;101667.69;4955753;28;45464;-60
2022/07/31 04:42:50;;;;;;;;;6.75;6.75;;;;;23.23;54.34;101654.81;4963117;28;45353;-60
2022/07/31 04:45:16;;;;;;;;;7.00;7.00;;;;;23.25;54.10;101659.03;4962817;28;45559;-60
2022/07/31 04:47:41;;;;;;;;;10.50;8.50;;;;;23.27;54.05;101664.25;4962285;28;45419;-60
2022/07/31 04:50:07;;;;;;;;;7.75;6.00;;;;;23.29;54.17;101662.25;4963145;28;45242;-60
2022/07/31 04:52:33;;;;;;;;;4.75;4.75;;;;;23.26;53.85;101666.09;4963129;28;45226;-60
2022/07/31 04:54:59;;;;;;;;;6.00;5.00;;;;;23.23;54.54;101661.03;4962628;28;45449;-60
2022/07/31 04:57:25;;;;;;;;;5.00;4.00;;;;;23.23;53.97;101668.25;4962583;28;45326;-60
2022/07/31 04:59:50;;;;;;;;;5.00;5.00;;;;;23.24;54.01;101669.94;4962959;28;45299;-60
2022/07/31 05:02:15;;;;;;;;;5.50;4.75;;;;;23.21;54.02;101665.69;4977657;28;45320;-60
2022/07/31 05:04:41;;;;;;;;;4.75;4.50;;;;;23.19;53.87;101666.84;4962439;28;46045;-60
2022/07/31 05:07:06;;;;;;;;;5.00;5.00;;;;;23.19;54.14;101672.22;4962586;28;45295;-60
2022/07/31 05:09:34;;;;;;;;;5.25;4.00;;;;;23.15;54.07;101674.38;4962895;28;45215;-61
2022/07/31 05:12:00;;;;;;;;;4.25;4.00;;;;;23.12;54.38;101672.81;4962629;28;45609;-60
2022/07/31 05:14:26;;;;;;;;;3.75;3.50;;;;;23.12;54.50;101675.50;4962178;28;45465;-59
2022/07/31 05:16:52;;;;;;;;;3.00;3.00;;;;;23.10;54.24;101674.81;4962400;28;45302;-60
2022/07/31 05:19:17;;;;;;;;;5.00;4.00;;;;;23.11;54.54;101678.34;4962318;28;45342;-59
2022/07/31 05:21:44;;;;;;;;;3.75;3.75;;;;;23.09;54.40;101681.19;4962464;28;45246;-59
2022/07/31 05:24:09;;;;;;;;;3.00;3.00;;;;;23.06;54.39;101669.88;4962194;28;45922;-59
2022/07/31 05:26:35;;;;;;;;;3.00;3.00;;;;;23.03;54.37;101681.78;4962127;28;45235;-59
2022/07/31 05:29:01;;;;;;;;;5.00;4.00;;;;;23.00;54.56;101687.47;4962757;28;45267;-59
2022/07/31 05:31:27;;;;;;;;;4.75;3.25;;;;;22.98;54.56;101673.31;4962268;28;45501;-59
2022/07/31 05:33:53;;;;;;;;;4.50;3.25;;;;;22.99;54.46;101666.97;4962177;28;45313;-59
2022/07/31 05:36:19;;;;;;;;;5.25;5.00;;;;;23.01;54.57;101664.97;4961919;28;45384;-59
2022/07/31 05:38:45;;;;;;;;;4.25;4.25;;;;;23.03;54.55;101665.66;4945882;28;45258;-59
2022/07/31 05:41:10;;;;;;;;;4.00;4.00;;;;;23.03;54.79;101662.13;4961306;28;45469;-59
2022/07/31 05:43:36;;;;;;;;;5.75;4.00;;;;;23.05;54.57;101669.03;4962073;28;46115;-59
2022/07/31 05:46:04;;;;;;;;;3.00;3.00;;;;;23.08;54.59;101663.38;4961925;28;45282;-59
2022/07/31 05:48:30;;;;;;;;;5.50;5.50;;;;;23.09;54.72;101662.38;4962083;28;45308;-59
2022/07/31 05:50:56;;;;;;;;;4.00;4.00;;;;;23.06;54.62;101673.41;4962235;28;45180;-59
2022/07/31 05:53:21;;;;;;;;;3.75;3.75;;;;;23.06;54.60;101675.25;4961837;28;45332;-60
2022/07/31 05:55:48;;;;;;;;;5.50;4.00;;;;;23.05;55.09;101674.41;4962045;28;45227;-59
2022/07/31 05:58:16;;;;;;;;;5.75;5.00;;;;;23.04;55.10;101682.63;4962169;28;45303;-59
2022/07/31 06:00:44;;;;;;;;;3.00;3.00;;;;;23.03;55.04;101671.03;4961899;28;45362;-59
2022/07/31 06:03:11;;;;;;;;;5.00;5.00;;;;;23.06;55.15;101675.25;4961464;28;45284;-59
2022/07/31 06:05:38;;;;;;;;;3.75;3.75;;;;;23.06;54.97;101672.56;4961804;28;45199;-59
2022/07/31 06:08:03;;;;;;;;;5.75;5.00;;;;;23.08;55.32;101674.13;4960543;28;45382;-59
2022/07/31 06:10:29;;;;;;;;;3.25;3.25;;;;;23.11;55.18;101663.06;4962071;28;45341;-59
2022/07/31 06:12:54;;;;;;;;;7.00;4.75;;;;;23.14;55.06;101669.97;4961637;28;45313;-60
2022/07/31 06:15:20;;;;;;;;;4.75;4.00;;;;;23.15;54.79;101657.41;4961846;28;45325;-60
2022/07/31 06:17:46;;;;;;;;;6.00;4.00;;;;;23.14;54.38;101669.97;4961438;28;45412;-60
2022/07/31 06:20:13;;;;;;;;;5.00;5.00;;;;;23.16;54.87;101668.00;4961611;28;45550;-59
2022/07/31 06:22:39;;;;;;;;;5.00;5.00;;;;;23.20;54.30;101669.38;4961492;28;46625;-59
2022/07/31 06:25:08;;;;;;;;;4.50;4.50;;;;;23.26;54.57;101676.00;4961620;28;45247;-60
2022/07/31 06:27:35;;;;;;;;;6.00;5.00;;;;;23.27;54.11;101675.00;4964948;28;45294;-61
2022/07/31 06:30:02;;;;;;;;;4.75;4.00;;;;;23.31;54.56;101676.41;4965154;28;45306;-60
2022/07/31 06:32:27;;;;;;;;;7.25;5.75;;;;;23.27;54.34;101680.38;4964544;28;46276;-60
2022/07/31 06:34:52;;;;;;;;;5.50;3.50;;;;;23.24;54.10;101676.16;4963617;28;45172;-61
2022/07/31 06:37:18;;;;;;;;;3.25;3.25;;;;;23.23;54.83;101669.09;4959827;28;45406;-61
2022/07/31 06:39:44;;;;;;;;;6.50;5.50;;;;;23.26;54.41;101667.94;4952770;28;45224;-61
2022/07/31 06:42:09;;;;;;;;;5.25;5.00;;;;;23.29;54.43;101671.16;4964835;28;45231;-60
2022/07/31 06:44:35;;;;;;;;;6.00;4.75;;;;;23.30;54.59;101680.06;4964744;28;45277;-59
2022/07/31 06:47:00;;;;;;;;;8.50;7.00;;;;;23.30;54.49;101674.69;4964892;28;45220;-59
2022/07/31 06:49:25;;;;;;;;;5.25;5.25;;;;;23.30;54.12;101680.94;4964838;28;45232;-59
2022/07/31 06:51:51;;;;;;;;;4.50;4.25;;;;;23.29;54.25;101691.81;4964678;28;45381;-59
2022/07/31 06:54:17;;;;;;;;;3.00;3.00;;;;;23.27;54.07;101689.28;4964787;28;45241;-60
2022/07/31 06:56:43;;;;;;;;;4.75;4.75;;;;;23.34;54.39;101687.69;4964922;28;45452;-59
2022/07/31 06:59:09;;;;;;;;;6.50;6.00;;;;;23.44;54.14;101686.78;4964762;28;45322;-60
2022/07/31 07:01:34;;;;;;;;;7.75;4.00;;;;;23.50;53.55;101689.72;4964551;28;46114;-59
2022/07/31 07:04:00;;;;;;;;;6.75;6.00;;;;;23.51;54.03;101696.78;4964335;28;45302;-59
2022/07/31 07:06:25;;;;;;;;;6.00;4.00;;;;;23.52;53.81;101694.94;4964696;28;45370;-59
2022/07/31 07:08:52;;;;;;;;;4.00;4.00;;;;;23.50;53.44;101678.09;4964759;28;45322;-59
2022/07/31 07:11:18;;;;;;;;;5.25;4.00;;;;;23.49;53.48;101679.09;4964417;28;45405;-60
2022/07/31 07:13:44;;;;;;;;;6.00;5.00;;;;;23.49;53.92;101682.63;4964199;28;45327;-59
2022/07/31 07:16:10;;;;;;;;;5.50;3.50;;;;;23.49;53.86;101692.56;4964406;28;45309;-59
2022/07/31 07:18:35;;;;;;;;;5.00;5.00;;;;;23.46;53.97;101690.16;4963962;28;45576;-59
2022/07/31 07:21:01;;;;;;;;;5.25;5.00;;;;;23.46;53.81;101687.47;4964133;28;45173;-59
2022/07/31 07:23:27;;;;;;;;;6.50;5.25;;;;;23.47;53.49;101691.88;4964177;28;45282;-60
2022/07/31 07:25:52;;;;;;;;;5.00;5.00;;;;;23.44;53.52;101698.38;4964401;28;45431;-60
2022/07/31 07:28:18;;;;;;;;;6.00;4.50;;;;;23.46;53.74;101704.47;4964311;28;45318;-59
2022/07/31 07:30:43;;;;;;;;;2.25;2.25;;;;;23.45;53.52;101710.81;4964060;28;45388;-59
2022/07/31 07:33:09;;;;;;;;;5.50;5.50;;;;;23.42;53.37;101707.59;4963664;28;45306;-60
2022/07/31 07:35:35;;;;;;;;;5.75;5.75;;;;;23.41;54.11;101706.75;4964169;28;45357;-60
2022/07/31 07:38:01;;;;;;;;;4.50;4.50;;;;;23.41;53.64;101709.44;4952940;28;45449;-59
2022/07/31 07:40:27;;;;;;;;;4.00;4.00;;;;;23.43;53.82;101701.22;4956831;28;45338;-59
2022/07/31 07:42:52;;;;;;;;;6.75;5.00;;;;;23.46;53.40;101703.59;4963963;28;45362;-59
2022/07/31 07:45:18;;;;;;;;;4.75;4.00;;;;;23.49;53.18;101703.31;4964174;28;45239;-59
2022/07/31 07:47:43;;;;;;;;;5.25;4.00;;;;;23.51;53.19;101704.00;4963624;28;45239;-59
2022/07/31 07:50:11;;;;;;;;;6.00;5.00;;;;;23.52;53.04;101701.16;4963878;28;46123;-60
2022/07/31 07:52:37;;;;;;;;;6.75;5.00;;;;;23.58;53.11;101708.63;4963768;28;45253;-60
2022/07/31 07:55:04;;;;;;;;;6.25;6.00;;;;;23.62;52.89;101707.38;4964149;28;45529;-60
2022/07/31 07:57:30;;;;;;;;;5.00;5.00;;;;;23.65;53.24;101704.34;4963680;28;45667;-59
2022/07/31 08:00:00;;;;;;;;;3.00;3.00;;;;;23.67;53.09;101702.34;4963619;28;46150;-59
2022/07/31 08:02:25;;;;;;;;;6.00;6.00;;;;;23.66;52.50;101702.50;4963460;28;45216;-60
2022/07/31 08:04:50;;;;;;;;;7.00;6.00;;;;;23.63;52.57;101703.69;4963775;28;45361;-59
2022/07/31 08:07:16;;;;;;;;;5.50;5.50;;;;;23.64;52.38;101705.38;4962491;28;45309;-60
2022/07/31 08:09:42;;;;;;;;;7.00;5.75;;;;;23.73;52.75;101714.34;4963485;28;45983;-59
2022/07/31 08:12:08;;;;;;;;;7.00;6.00;;;;;23.80;52.28;101703.84;4963689;28;45534;-59
2022/07/31 08:14:34;;;;;;;;;6.75;6.00;;;;;23.80;52.60;101699.28;4963670;28;45394;-59
2022/07/31 08:16:59;;;;;;;;;5.00;5.00;;;;;23.83;52.61;101708.91;4963457;28;45248;-61
2022/07/31 08:19:25;;;;;;;;;8.25;6.00;;;;;23.83;52.12;101711.59;4963050;28;46025;-60
2022/07/31 08:21:50;;;;;;;;;6.50;6.50;;;;;23.85;52.55;101720.34;4963496;28;45337;-60
2022/07/31 08:24:16;;;;;;;;;5.25;5.00;;;;;23.87;52.30;101721.91;4963358;28;45255;-59
2022/07/31 08:29:26;;;;;;;;;6.00;5.25;;;;;23.93;52.59;101715.88;4963123;28;45755;-59
2022/07/31 08:31:52;;;;;;;;;6.50;6.00;;;;;23.95;52.05;101716.59;4963150;28;45721;-60
2022/07/31 08:34:18;;;;;;;;;7.00;7.00;;;;;23.95;52.33;101711.22;4962963;28;45262;-60
2022/07/31 08:36:43;;;;;;;;;7.00;6.00;;;;;23.98;52.58;101714.59;4962960;28;45239;-60
2022/07/31 08:39:09;;;;;;;;;4.75;4.75;;;;;23.98;51.88;101706.50;4945633;28;46253;-59
2022/07/31 08:41:39;;;;;;;;;7.25;7.25;;;;;23.98;52.04;101703.81;4963187;28;45215;-59
2022/07/31 08:44:06;;;;;;;;;5.75;5.50;;;;;24.00;51.83;101704.50;4962874;28;45480;-60
2022/07/31 08:46:36;;;;;;;;;5.75;5.75;;;;;24.02;52.18;101700.69;4962981;28;45509;-59
2022/07/31 08:49:02;;;;;;;;;8.00;8.00;;;;;24.04;51.80;101709.44;4961662;28;45464;-59
2022/07/31 08:51:31;;;;;;;;;9.00;7.25;;;;;24.10;52.08;101697.22;4962554;28;45375;-59
2022/07/31 08:53:58;;;;;;;;;8.00;7.00;;;;;24.19;51.67;101701.66;4962854;28;45359;-60
2022/07/31 08:56:24;;;;;;;;;8.00;8.00;;;;;24.26;51.94;101702.72;4963092;28;45266;-60
2022/07/31 08:58:50;;;;;;;;;8.50;6.00;;;;;24.31;51.28;101710.31;4962547;28;45382;-60
2022/07/31 09:01:16;;;;;;;;;6.50;6.50;;;;;24.36;51.10;101705.34;4962760;28;45179;-59
2022/07/31 09:03:41;;;;;;;;;7.25;7.25;;;;;24.49;51.61;101706.63;4977605;28;45215;-59
2022/07/31 09:06:07;;;;;;;;;9.25;6.00;;;;;24.55;51.59;101707.81;4962844;28;45289;-60
2022/07/31 09:08:34;;;;;;;;;6.50;6.50;;;;;24.59;51.34;101701.13;4962665;28;45805;-59
2022/07/31 09:11:12;;;;;;;;;7.75;7.00;;;;;24.64;50.80;101706.88;4962711;28;45318;-59
2022/07/31 09:13:38;;;;;;;;;6.75;6.75;;;;;24.67;51.05;101709.25;4962511;28;45512;-60
2022/07/31 09:16:04;;;;;;;;;9.25;8.25;;;;;24.72;51.27;101706.91;4962456;28;45448;-60
2022/07/31 09:18:30;;;;;;;;;18.50;16.00;;;;;24.73;50.66;101697.84;4961980;28;45472;-60
2022/07/31 09:21:04;;;;;;;;;9.25;7.50;;;;;24.70;50.57;101703.53;4962480;28;45401;-60
2022/07/31 09:23:33;;;;;;;;;8.00;7.00;;;;;24.68;50.26;101702.00;4962827;28;45247;-60
2022/07/31 09:26:02;;;;;;;;;8.25;6.00;;;;;24.70;50.68;101706.22;4962349;28;45552;-60
2022/07/31 09:28:44;;;;;;;;;7.00;6.00;;;;;24.77;50.32;101701.06;4962239;28;46183;-60
2022/07/31 09:31:12;;;;;;;;;6.00;5.75;;;;;24.79;50.74;101699.03;4962029;28;45354;-59
2022/07/31 09:33:44;;;;;;;;;7.00;6.00;;;;;24.85;49.85;101697.56;4962141;28;45197;-59
2022/07/31 09:36:09;;;;;;;;;9.75;8.00;;;;;24.93;50.01;101690.34;4962072;28;45355;-59
2022/07/31 09:38:38;;;;;;;;;7.75;7.75;;;;;24.97;49.77;101697.13;4946663;28;45250;-60
2022/07/31 09:41:08;;;;;;;;;7.50;6.75;;;;;24.94;50.26;101704.66;4960118;28;45235;-60
2022/07/31 09:43:34;;;;;;;;;8.25;8.25;;;;;24.93;50.09;101703.00;4962212;28;45271;-59
2022/07/31 09:46:00;;;;;;;;;8.25;8.25;;;;;24.98;49.79;101704.19;4962057;28;45310;-59
2022/07/31 09:48:26;;;;;;;;;7.75;7.25;;;;;24.98;49.19;101698.81;4961914;28;46345;-59
2022/07/31 09:50:54;;;;;;;;;9.25;7.00;;;;;25.05;49.72;101696.34;4961918;28;45321;-59
2022/07/31 09:53:20;;;;;;;;;10.50;8.00;;;;;25.11;49.68;101698.38;4961982;28;45298;-60
2022/07/31 09:55:53;;;;;;;;;9.00;7.00;;;;;25.05;49.48;101702.59;4962166;28;45143;-60
2022/07/31 09:58:20;;;;;;;;;7.75;7.75;;;;;25.05;49.27;101697.19;4961898;28;45229;-60
2022/07/31 10:00:47;;;;;;;;;9.50;8.00;;;;;25.11;49.14;101702.94;4961624;28;45247;-60
2022/07/31 10:03:13;;;;;;;;;7.75;7.75;;;;;25.17;49.28;101705.81;4961619;28;45308;-60
2022/07/31 10:05:40;;;;;;;;;9.50;8.25;;;;;25.27;49.15;101711.06;4962036;28;45361;-60
2022/07/31 10:08:07;;;;;;;;;7.00;7.00;;;;;25.31;49.51;101699.81;4961714;28;45321;-61
2022/07/31 10:10:34;;;;;;;;;8.00;8.00;;;;;25.39;49.46;101692.75;4961911;28;45449;-58
2022/07/31 10:13:05;;;;;;;;;9.25;8.25;;;;;25.48;49.15;101702.56;4961714;28;45324;-58
2022/07/31 10:15:34;;;;;;;;;9.50;7.75;;;;;25.51;48.73;101703.06;4961740;28;45766;-59
2022/07/31 10:18:01;;;;;;;;;8.75;8.75;;;;;25.57;48.70;101693.47;4960696;28;46267;-59
2022/07/31 10:20:29;;;;;;;;;9.75;9.00;;;;;25.68;49.01;101695.84;4961628;28;45338;-59
2022/07/31 10:23:07;;;;;;;;;11.00;9.00;;;;;25.73;48.41;101698.06;4961558;28;45251;-59
2022/07/31 10:25:38;;;;;;;;;6.75;6.00;;;;;25.75;48.57;101691.53;4961587;28;45336;-59
2022/07/31 10:28:06;;;;;;;;;10.25;8.50;;;;;25.75;48.32;101690.66;4961341;28;45901;-59
2022/07/31 10:30:31;;;;;;;;;5.00;5.00;;;;;25.77;48.46;101681.38;4961638;28;45512;-59
2022/07/31 10:32:58;;;;;;;;;8.75;8.50;;;;;25.85;48.52;101688.66;4961288;28;45322;-60
2022/07/31 10:35:23;;;;;;;;;10.50;9.00;;;;;25.91;48.19;101684.41;4961377;28;45536;-59
2022/07/31 10:38:21;;;;;;;;;9.00;8.25;;;;;25.94;48.17;101678.69;4951884;28;45694;-59
2022/07/31 10:41:02;;;;;;;;;7.75;7.75;;;;;26.01;48.09;101685.97;4948246;28;45273;-59
2022/07/31 10:43:38;;;;;;;;;8.00;8.00;;;;;26.10;48.14;101686.78;4961709;28;45403;-59
2022/07/31 10:46:03;;;;;;;;;75.00;65.00;;;;;26.16;48.23;101683.41;4961191;28;45363;-59
2022/07/31 10:48:29;;;;;;;;;9.25;7.75;;;;;26.23;47.86;101684.44;4961214;28;46523;-60
2022/07/31 10:51:10;;;;;;;;;8.00;8.00;;;;;26.32;47.72;101680.69;4961389;28;45223;-59
2022/07/31 10:53:37;;;;;;;;;10.50;7.00;;;;;26.39;47.59;101681.75;4961555;28;45324;-59
2022/07/31 10:56:09;;;;;;;;;7.00;7.00;;;;;26.43;47.44;101679.53;4961212;28;45430;-59
2022/07/31 10:58:47;;;;;;;;;7.00;7.00;;;;;26.52;47.22;101672.25;4961013;28;46092;-60
2022/07/31 11:01:12;;;;;;;;;7.75;7.00;;;;;26.61;47.24;101669.34;4961231;28;45307;-59
2022/07/31 11:03:40;;;;;;;;;7.50;7.50;;;;;26.73;46.99;101675.22;4961085;28;45341;-60
2022/07/31 11:06:06;;;;;;;;;9.25;8.25;;;;;26.79;47.00;101674.53;4961258;28;45464;-60
2022/07/31 11:08:47;;;;;;;;;8.00;7.00;;;;;26.79;47.07;101671.84;4960847;28;45992;-60
2022/07/31 11:11:14;;;;;;;;;8.75;6.75;;;;;26.82;46.81;101674.19;4961377;28;45297;-60
2022/07/31 11:13:59;;;;;;;;;6.00;6.00;;;;;26.83;46.60;101669.63;4964222;28;45376;-60
2022/07/31 11:16:27;;;;;;;;;10.00;8.00;;;;;26.88;46.50;101665.38;4964191;28;45235;-60
2022/07/31 11:19:05;;;;;;;;;5.50;5.50;;;;;26.91;46.36;101664.16;4963909;28;46143;-60
2022/07/31 11:21:39;;;;;;;;;6.00;5.00;;;;;26.91;46.29;101667.72;4964019;28;45259;-61
2022/07/31 11:24:19;;;;;;;;;7.25;6.00;;;;;26.98;46.32;101657.03;4964109;28;45337;-60
2022/07/31 11:26:54;;;;;;;;;6.50;5.00;;;;;27.03;46.52;101660.06;4964460;28;45279;-60
2022/07/31 11:29:33;;;;;;;;;5.00;5.00;;;;;27.08;46.35;101659.56;4963928;28;45179;-60